sensor_id;sensor_type;location;lat;lon;timestamp;pressure;altitude;pressure_sealevel;temperature;humidity
11808;BME280;5961;42.640;23.380;2023-04-06T00:00:02;93739.69;;;0.93;80.57
11808;BME280;5961;42.640;23.380;2023-04-06T00:02:30;93722.44;;;0.92;80.34
11808;BME280;5961;42.640;23.380;2023-04-06T00:04:56;93738.75;;;0.84;80.76
11808;BME280;5961;42.640;23.380;2023-04-06T00:07:23;93732.41;;;0.90;81.01
11808;BME280;5961;42.640;23.380;2023-04-06T00:09:50;93730.84;;;0.89;81.16
11808;BME280;5961;42.640;23.380;2023-04-06T00:12:17;93734.50;;;0.88;80.82
11808;BME280;5961;42.640;23.380;2023-04-06T00:14:45;93677.44;;;0.47;80.80
11808;BME280;5961;42.640;23.380;2023-04-06T00:17:12;93762.31;;;0.84;81.22
11808;BME280;5961;42.640;23.380;2023-04-06T00:19:39;93727.97;;;0.90;80.90
11808;BME280;5961;42.640;23.380;2023-04-06T00:22:05;93729.72;;;0.95;81.24
11808;BME280;5961;42.640;23.380;2023-04-06T00:24:32;93741.25;;;0.94;80.78
11808;BME280;5961;42.640;23.380;2023-04-06T00:26:59;93718.22;;;0.96;80.82
11808;BME280;5961;42.640;23.380;2023-04-06T00:29:26;93717.22;;;0.92;80.90
11808;BME280;5961;42.640;23.380;2023-04-06T00:31:54;93709.13;;;0.88;80.94
11808;BME280;5961;42.640;23.380;2023-04-06T00:34:21;93714.91;;;0.85;81.17
11808;BME280;5961;42.640;23.380;2023-04-06T00:36:48;93717.50;;;0.90;81.22
11808;BME280;5961;42.640;23.380;2023-04-06T00:39:14;93735.25;;;0.93;81.21
11808;BME280;5961;42.640;23.380;2023-04-06T00:41:46;93714.81;;;0.95;81.29
11808;BME280;5961;42.640;23.380;2023-04-06T00:44:15;93700.47;;;0.93;81.47
11808;BME280;5961;42.640;23.380;2023-04-06T00:46:41;93714.03;;;0.95;81.01
11808;BME280;5961;42.640;23.380;2023-04-06T00:49:10;93705.97;;;0.91;81.02
11808;BME280;5961;42.640;23.380;2023-04-06T00:51:36;93704.78;;;0.79;81.42
11808;BME280;5961;42.640;23.380;2023-04-06T00:54:03;93707.78;;;0.91;81.33
11808;BME280;5961;42.640;23.380;2023-04-06T00:56:31;93705.69;;;0.93;81.34
11808;BME280;5961;42.640;23.380;2023-04-06T00:58:58;93707.47;;;0.97;81.49
11808;BME280;5961;42.640;23.380;2023-04-06T01:01:25;93699.00;;;0.82;81.21
11808;BME280;5961;42.640;23.380;2023-04-06T01:03:52;93707.75;;;0.96;81.14
11808;BME280;5961;42.640;23.380;2023-04-06T01:06:21;93699.94;;;0.91;81.42
11808;BME280;5961;42.640;23.380;2023-04-06T01:08:48;93714.03;;;0.95;81.86
11808;BME280;5961;42.640;23.380;2023-04-06T01:11:14;93703.13;;;0.88;81.87
11808;BME280;5961;42.640;23.380;2023-04-06T01:13:41;93710.41;;;0.91;81.87
11808;BME280;5961;42.640;23.380;2023-04-06T01:16:08;93693.22;;;0.85;81.99
11808;BME280;5961;42.640;23.380;2023-04-06T01:18:35;93686.38;;;0.89;82.16
11808;BME280;5961;42.640;23.380;2023-04-06T01:21:02;93698.75;;;0.83;82.16
11808;BME280;5961;42.640;23.380;2023-04-06T01:23:30;93688.53;;;0.82;82.17
11808;BME280;5961;42.640;23.380;2023-04-06T01:25:57;93689.09;;;0.79;82.58
11808;BME280;5961;42.640;23.380;2023-04-06T01:28:24;93680.38;;;0.65;83.10
11808;BME280;5961;42.640;23.380;2023-04-06T01:30:50;93651.88;;;0.39;82.95
11808;BME280;5961;42.640;23.380;2023-04-06T01:33:17;93694.47;;;0.69;83.49
11808;BME280;5961;42.640;23.380;2023-04-06T01:35:44;93677.69;;;0.70;83.35
11808;BME280;5961;42.640;23.380;2023-04-06T01:38:10;93684.50;;;0.71;83.50
11808;BME280;5961;42.640;23.380;2023-04-06T01:40:39;93686.31;;;0.70;83.22
11808;BME280;5961;42.640;23.380;2023-04-06T01:43:05;93670.97;;;0.64;83.53
11808;BME280;5961;42.640;23.380;2023-04-06T01:45:33;93687.91;;;0.71;83.30
11808;BME280;5961;42.640;23.380;2023-04-06T01:47:59;93657.41;;;0.62;83.44
11808;BME280;5961;42.640;23.380;2023-04-06T01:50:26;93674.66;;;0.63;84.02
11808;BME280;5961;42.640;23.380;2023-04-06T01:52:53;93667.53;;;0.68;84.19
11808;BME280;5961;42.640;23.380;2023-04-06T01:55:20;93649.09;;;0.54;83.94
11808;BME280;5961;42.640;23.380;2023-04-06T01:57:48;93664.69;;;0.65;84.11
11808;BME280;5961;42.640;23.380;2023-04-06T02:00:15;93679.81;;;0.68;84.22
11808;BME280;5961;42.640;23.380;2023-04-06T02:02:42;93656.28;;;0.68;83.94
11808;BME280;5961;42.640;23.380;2023-04-06T02:05:09;93665.69;;;0.69;83.80
11808;BME280;5961;42.640;23.380;2023-04-06T02:07:36;93666.19;;;0.71;83.74
11808;BME280;5961;42.640;23.380;2023-04-06T02:10:03;93593.44;;;0.30;83.79
11808;BME280;5961;42.640;23.380;2023-04-06T02:12:30;93663.56;;;0.71;84.00
11808;BME280;5961;42.640;23.380;2023-04-06T02:14:58;93666.75;;;0.68;83.75
11808;BME280;5961;42.640;23.380;2023-04-06T02:17:25;93676.66;;;0.71;83.78
11808;BME280;5961;42.640;23.380;2023-04-06T02:19:52;93669.03;;;0.74;83.73
11808;BME280;5961;42.640;23.380;2023-04-06T02:22:19;93653.59;;;0.73;83.76
11808;BME280;5961;42.640;23.380;2023-04-06T02:24:45;93668.19;;;0.79;83.54
11808;BME280;5961;42.640;23.380;2023-04-06T02:27:13;93663.94;;;0.83;83.30
11808;BME280;5961;42.640;23.380;2023-04-06T02:29:40;93659.50;;;0.83;83.31
11808;BME280;5961;42.640;23.380;2023-04-06T02:32:08;93665.84;;;0.77;83.13
11808;BME280;5961;42.640;23.380;2023-04-06T02:34:35;93664.50;;;0.80;83.04
11808;BME280;5961;42.640;23.380;2023-04-06T02:37:01;93676.03;;;0.79;83.50
11808;BME280;5961;42.640;23.380;2023-04-06T02:39:28;93657.16;;;0.82;83.33
11808;BME280;5961;42.640;23.380;2023-04-06T02:41:55;93658.84;;;0.73;82.94
11808;BME280;5961;42.640;23.380;2023-04-06T02:44:22;93674.19;;;0.79;83.22
11808;BME280;5961;42.640;23.380;2023-04-06T02:46:49;93653.22;;;0.84;83.32
11808;BME280;5961;42.640;23.380;2023-04-06T02:49:17;93627.94;;;0.56;83.57
11808;BME280;5961;42.640;23.380;2023-04-06T02:51:44;93678.03;;;0.87;83.41
11808;BME280;5961;42.640;23.380;2023-04-06T02:54:11;93686.44;;;0.84;83.33
11808;BME280;5961;42.640;23.380;2023-04-06T02:56:37;93671.25;;;0.86;83.37
11808;BME280;5961;42.640;23.380;2023-04-06T02:59:04;93562.66;;;0.27;83.20
11808;BME280;5961;42.640;23.380;2023-04-06T03:01:31;93612.69;;;0.63;83.12
11808;BME280;5961;42.640;23.380;2023-04-06T03:03:58;93672.72;;;0.92;83.53
11808;BME280;5961;42.640;23.380;2023-04-06T03:06:26;93663.28;;;0.96;83.36
11808;BME280;5961;42.640;23.380;2023-04-06T03:08:53;93651.03;;;0.91;83.37
11808;BME280;5961;42.640;23.380;2023-04-06T03:11:20;93657.03;;;0.92;83.20
11808;BME280;5961;42.640;23.380;2023-04-06T03:13:47;93644.09;;;1.00;82.83
11808;BME280;5961;42.640;23.380;2023-04-06T03:16:14;93641.25;;;0.97;83.61
11808;BME280;5961;42.640;23.380;2023-04-06T03:18:40;93672.41;;;0.98;83.07
11808;BME280;5961;42.640;23.380;2023-04-06T03:21:07;93654.41;;;0.92;83.78
11808;BME280;5961;42.640;23.380;2023-04-06T03:23:35;93652.28;;;0.94;83.50
11808;BME280;5961;42.640;23.380;2023-04-06T03:26:02;93651.59;;;0.88;83.17
11808;BME280;5961;42.640;23.380;2023-04-06T03:28:29;93646.09;;;0.90;83.63
11808;BME280;5961;42.640;23.380;2023-04-06T03:30:57;93652.44;;;0.84;83.76
11808;BME280;5961;42.640;23.380;2023-04-06T03:33:24;93688.28;;;0.83;83.56
11808;BME280;5961;42.640;23.380;2023-04-06T03:35:52;93601.72;;;0.61;83.61
11808;BME280;5961;42.640;23.380;2023-04-06T03:38:19;93639.59;;;0.87;83.48
11808;BME280;5961;42.640;23.380;2023-04-06T03:40:47;93673.78;;;0.91;83.46
11808;BME280;5961;42.640;23.380;2023-04-06T03:43:14;93658.09;;;0.91;83.21
11808;BME280;5961;42.640;23.380;2023-04-06T03:45:41;93656.03;;;0.88;83.15
11808;BME280;5961;42.640;23.380;2023-04-06T03:48:07;93643.47;;;0.90;82.79
11808;BME280;5961;42.640;23.380;2023-04-06T03:50:34;93656.03;;;0.88;82.90
11808;BME280;5961;42.640;23.380;2023-04-06T03:53:01;93656.22;;;0.96;82.81
11808;BME280;5961;42.640;23.380;2023-04-06T03:55:28;93652.81;;;0.96;82.78
11808;BME280;5961;42.640;23.380;2023-04-06T03:57:56;93663.41;;;0.86;82.49
11808;BME280;5961;42.640;23.380;2023-04-06T04:00:23;93654.16;;;0.93;82.88
11808;BME280;5961;42.640;23.380;2023-04-06T04:02:50;93662.75;;;0.94;82.58
11808;BME280;5961;42.640;23.380;2023-04-06T04:05:16;93651.44;;;0.80;83.16
11808;BME280;5961;42.640;23.380;2023-04-06T04:07:43;93679.16;;;0.81;83.35
11808;BME280;5961;42.640;23.380;2023-04-06T04:10:10;93642.16;;;0.69;83.19
11808;BME280;5961;42.640;23.380;2023-04-06T04:12:36;93677.81;;;0.83;83.12
11808;BME280;5961;42.640;23.380;2023-04-06T04:15:05;93634.47;;;0.77;83.30
11808;BME280;5961;42.640;23.380;2023-04-06T04:17:32;93662.38;;;0.82;83.81
11808;BME280;5961;42.640;23.380;2023-04-06T04:19:59;93655.06;;;0.84;83.68
11808;BME280;5961;42.640;23.380;2023-04-06T04:22:26;93659.16;;;0.90;83.20
11808;BME280;5961;42.640;23.380;2023-04-06T04:24:53;93649.19;;;0.92;83.05
11808;BME280;5961;42.640;23.380;2023-04-06T04:27:20;93655.44;;;0.96;83.01
11808;BME280;5961;42.640;23.380;2023-04-06T04:29:47;93643.19;;;0.91;83.15
11808;BME280;5961;42.640;23.380;2023-04-06T04:32:15;93663.69;;;1.03;83.04
11808;BME280;5961;42.640;23.380;2023-04-06T04:34:42;93661.59;;;1.05;82.87
11808;BME280;5961;42.640;23.380;2023-04-06T04:37:08;93661.59;;;1.05;82.63
11808;BME280;5961;42.640;23.380;2023-04-06T04:39:35;93652.47;;;1.02;82.55
11808;BME280;5961;42.640;23.380;2023-04-06T04:42:02;93659.38;;;1.12;82.44
11808;BME280;5961;42.640;23.380;2023-04-06T04:44:29;93658.81;;;1.15;82.18
11808;BME280;5961;42.640;23.380;2023-04-06T04:46:55;93633.97;;;0.94;82.20
11808;BME280;5961;42.640;23.380;2023-04-06T04:49:24;93661.44;;;1.15;82.26
11808;BME280;5961;42.640;23.380;2023-04-06T04:51:51;93663.00;;;1.16;81.89
11808;BME280;5961;42.640;23.380;2023-04-06T04:54:18;93660.38;;;1.16;81.70
11808;BME280;5961;42.640;23.380;2023-04-06T04:56:45;93665.84;;;1.20;82.38
11808;BME280;5961;42.640;23.380;2023-04-06T04:59:12;93666.06;;;1.23;81.76
11808;BME280;5961;42.640;23.380;2023-04-06T05:01:38;93649.47;;;1.09;81.28
11808;BME280;5961;42.640;23.380;2023-04-06T05:04:05;93672.78;;;1.29;81.74
11808;BME280;5961;42.640;23.380;2023-04-06T05:06:33;93668.09;;;1.26;81.30
11808;BME280;5961;42.640;23.380;2023-04-06T05:09:00;93651.41;;;1.22;81.31
11808;BME280;5961;42.640;23.380;2023-04-06T05:11:27;93670.44;;;1.28;81.92
11808;BME280;5961;42.640;23.380;2023-04-06T05:13:53;93658.47;;;1.22;82.01
11808;BME280;5961;42.640;23.380;2023-04-06T05:16:20;93660.53;;;1.25;81.83
11808;BME280;5961;42.640;23.380;2023-04-06T05:18:47;93660.88;;;1.18;81.96
11808;BME280;5961;42.640;23.380;2023-04-06T05:21:14;93660.88;;;1.18;82.20
11808;BME280;5961;42.640;23.380;2023-04-06T05:23:42;93655.16;;;1.16;82.43
11808;BME280;5961;42.640;23.380;2023-04-06T05:26:09;93671.78;;;1.25;82.43
11808;BME280;5961;42.640;23.380;2023-04-06T05:28:36;93665.13;;;1.33;82.12
11808;BME280;5961;42.640;23.380;2023-04-06T05:31:03;93673.97;;;1.37;81.73
11808;BME280;5961;42.640;23.380;2023-04-06T05:33:30;93628.97;;;1.16;81.83
11808;BME280;5961;42.640;23.380;2023-04-06T05:35:57;93674.31;;;1.49;81.77
11808;BME280;5961;42.640;23.380;2023-04-06T05:38:25;93670.28;;;1.56;81.58
11808;BME280;5961;42.640;23.380;2023-04-06T05:40:54;93662.22;;;1.53;82.05
11808;BME280;5961;42.640;23.380;2023-04-06T05:43:21;93659.31;;;1.54;81.84
11808;BME280;5961;42.640;23.380;2023-04-06T05:45:47;93668.16;;;1.58;81.85
11808;BME280;5961;42.640;23.380;2023-04-06T05:48:14;93659.31;;;1.54;82.20
11808;BME280;5961;42.640;23.380;2023-04-06T05:50:41;93654.97;;;1.63;82.12
11808;BME280;5961;42.640;23.380;2023-04-06T05:53:08;93653.13;;;1.64;81.86
11808;BME280;5961;42.640;23.380;2023-04-06T05:55:35;93637.09;;;1.52;82.18
11808;BME280;5961;42.640;23.380;2023-04-06T05:58:03;93666.19;;;1.69;82.40
11808;BME280;5961;42.640;23.380;2023-04-06T06:00:29;93653.78;;;1.75;82.31
11808;BME280;5961;42.640;23.380;2023-04-06T06:02:56;93649.09;;;1.72;82.54
11808;BME280;5961;42.640;23.380;2023-04-06T06:05:23;93646.81;;;1.84;82.23
11808;BME280;5961;42.640;23.380;2023-04-06T06:07:50;93647.38;;;1.81;82.37
11808;BME280;5961;42.640;23.380;2023-04-06T06:10:16;93615.50;;;1.60;82.58
11808;BME280;5961;42.640;23.380;2023-04-06T06:12:43;93609.41;;;1.64;82.31
11808;BME280;5961;42.640;23.380;2023-04-06T06:15:12;93610.88;;;1.71;82.14
11808;BME280;5961;42.640;23.380;2023-04-06T06:17:39;93666.13;;;1.88;81.68
11808;BME280;5961;42.640;23.380;2023-04-06T06:20:08;93676.41;;;1.84;81.96
11808;BME280;5961;42.640;23.380;2023-04-06T06:22:35;93662.03;;;1.82;81.91
11808;BME280;5961;42.640;23.380;2023-04-06T06:25:02;93664.06;;;1.85;82.75
11808;BME280;5961;42.640;23.380;2023-04-06T06:27:29;93608.13;;;1.62;82.83
11808;BME280;5961;42.640;23.380;2023-04-06T06:29:56;93642.84;;;1.86;83.36
11808;BME280;5961;42.640;23.380;2023-04-06T06:32:24;93641.84;;;1.82;82.43
11808;BME280;5961;42.640;23.380;2023-04-06T06:34:51;93652.53;;;1.86;82.66
11808;BME280;5961;42.640;23.380;2023-04-06T06:37:18;93647.97;;;1.78;83.01
11808;BME280;5961;42.640;23.380;2023-04-06T06:39:45;93637.38;;;1.83;83.20
11808;BME280;5961;42.640;23.380;2023-04-06T06:42:11;93636.53;;;1.87;84.64
11808;BME280;5961;42.640;23.380;2023-04-06T06:44:38;93645.09;;;1.93;84.71
11808;BME280;5961;42.640;23.380;2023-04-06T06:47:05;93643.44;;;1.97;84.36
11808;BME280;5961;42.640;23.380;2023-04-06T06:49:33;93646.25;;;2.00;84.91
11808;BME280;5961;42.640;23.380;2023-04-06T06:52:00;93643.28;;;2.07;84.83
11808;BME280;5961;42.640;23.380;2023-04-06T06:54:27;93649.78;;;2.09;83.47
11808;BME280;5961;42.640;23.380;2023-04-06T06:56:54;93665.72;;;2.13;82.99
11808;BME280;5961;42.640;23.380;2023-04-06T06:59:20;93642.53;;;2.20;83.51
11808;BME280;5961;42.640;23.380;2023-04-06T07:01:47;93642.53;;;2.20;83.97
11808;BME280;5961;42.640;23.380;2023-04-06T07:04:14;93640.09;;;2.24;82.49
11808;BME280;5961;42.640;23.380;2023-04-06T07:06:42;93657.56;;;2.28;83.12
11808;BME280;5961;42.640;23.380;2023-04-06T07:09:09;93629.22;;;2.30;83.19
11808;BME280;5961;42.640;23.380;2023-04-06T07:11:35;93639.44;;;2.32;83.43
11808;BME280;5961;42.640;23.380;2023-04-06T07:14:02;93641.00;;;2.33;83.10
11808;BME280;5961;42.640;23.380;2023-04-06T07:18:55;93662.66;;;2.38;82.99
11808;BME280;5961;42.640;23.380;2023-04-06T07:21:22;93638.75;;;2.40;82.92
11808;BME280;5961;42.640;23.380;2023-04-06T07:23:50;93638.94;;;2.43;82.89
11808;BME280;5961;42.640;23.380;2023-04-06T07:26:17;93645.75;;;2.44;82.70
11808;BME280;5961;42.640;23.380;2023-04-06T07:28:44;93648.84;;;2.46;82.23
11808;BME280;5961;42.640;23.380;2023-04-06T07:31:10;93652.94;;;2.52;82.21
11808;BME280;5961;42.640;23.380;2023-04-06T07:33:37;93652.34;;;2.55;81.20
11808;BME280;5961;42.640;23.380;2023-04-06T07:36:04;93673.13;;;2.52;79.73
11808;BME280;5961;42.640;23.380;2023-04-06T07:38:31;93635.72;;;2.60;80.11
11808;BME280;5961;42.640;23.380;2023-04-06T07:40:59;93622.22;;;2.66;80.74
11808;BME280;5961;42.640;23.380;2023-04-06T07:43:29;93645.06;;;2.66;80.27
11808;BME280;5961;42.640;23.380;2023-04-06T07:45:55;93641.19;;;2.63;80.44
11808;BME280;5961;42.640;23.380;2023-04-06T07:48:23;93652.34;;;2.55;79.98
11808;BME280;5961;42.640;23.380;2023-04-06T07:50:49;93647.13;;;2.55;80.32
11808;BME280;5961;42.640;23.380;2023-04-06T07:53:16;93635.06;;;2.54;80.47
11808;BME280;5961;42.640;23.380;2023-04-06T07:55:43;93647.59;;;2.57;80.98
11808;BME280;5961;42.640;23.380;2023-04-06T07:58:11;93640.81;;;2.56;81.51
11808;BME280;5961;42.640;23.380;2023-04-06T08:00:38;93644.00;;;2.53;81.19
11808;BME280;5961;42.640;23.380;2023-04-06T08:03:04;93642.25;;;2.49;81.07
11808;BME280;5961;42.640;23.380;2023-04-06T08:05:32;93631.38;;;2.55;81.46
11808;BME280;5961;42.640;23.380;2023-04-06T08:07:59;93643.81;;;2.63;81.35
11808;BME280;5961;42.640;23.380;2023-04-06T08:10:25;93643.88;;;2.72;81.39
11808;BME280;5961;42.640;23.380;2023-04-06T08:12:52;93645.84;;;2.80;81.27
11808;BME280;5961;42.640;23.380;2023-04-06T08:15:20;93631.75;;;2.90;80.82
11808;BME280;5961;42.640;23.380;2023-04-06T08:17:47;93634.34;;;3.03;80.81
11808;BME280;5961;42.640;23.380;2023-04-06T08:20:14;93666.16;;;3.02;79.37
11808;BME280;5961;42.640;23.380;2023-04-06T08:22:41;93661.44;;;3.12;78.85
11808;BME280;5961;42.640;23.380;2023-04-06T08:25:08;93640.34;;;3.17;78.87
11808;BME280;5961;42.640;23.380;2023-04-06T08:27:34;93663.56;;;3.24;79.01
11808;BME280;5961;42.640;23.380;2023-04-06T08:30:02;93642.56;;;3.24;79.47
11808;BME280;5961;42.640;23.380;2023-04-06T08:32:30;93651.28;;;3.33;78.65
11808;BME280;5961;42.640;23.380;2023-04-06T08:34:57;93640.19;;;3.36;77.13
11808;BME280;5961;42.640;23.380;2023-04-06T08:37:25;93672.69;;;3.40;78.34
11808;BME280;5961;42.640;23.380;2023-04-06T08:39:52;93655.38;;;3.39;78.02
11808;BME280;5961;42.640;23.380;2023-04-06T08:42:20;93659.09;;;3.38;76.81
11808;BME280;5961;42.640;23.380;2023-04-06T08:44:48;93654.19;;;3.45;77.43
11808;BME280;5961;42.640;23.380;2023-04-06T08:47:16;93641.75;;;3.37;75.45
11808;BME280;5961;42.640;23.380;2023-04-06T08:49:45;93665.47;;;3.46;74.36
11808;BME280;5961;42.640;23.380;2023-04-06T08:52:12;93661.38;;;3.53;74.01
11808;BME280;5961;42.640;23.380;2023-04-06T08:54:39;93711.56;;;3.52;73.11
11808;BME280;5961;42.640;23.380;2023-04-06T08:57:07;93694.47;;;3.41;73.19
11808;BME280;5961;42.640;23.380;2023-04-06T08:59:34;93678.06;;;3.35;71.89
11808;BME280;5961;42.640;23.380;2023-04-06T09:02:03;93662.56;;;3.33;72.62
11808;BME280;5961;42.640;23.380;2023-04-06T09:04:31;93640.44;;;3.26;73.39
11808;BME280;5961;42.640;23.380;2023-04-06T09:07:00;93623.84;;;3.39;73.57
11808;BME280;5961;42.640;23.380;2023-04-06T09:09:27;93658.50;;;3.41;73.67
11808;BME280;5961;42.640;23.380;2023-04-06T09:11:54;93697.97;;;3.36;73.59
11808;BME280;5961;42.640;23.380;2023-04-06T09:14:34;93629.03;;;3.30;74.12
11808;BME280;5961;42.640;23.380;2023-04-06T09:17:02;93654.09;;;3.50;73.07
11808;BME280;5961;42.640;23.380;2023-04-06T09:19:28;93667.22;;;3.50;73.80
11808;BME280;5961;42.640;23.380;2023-04-06T09:22:03;93653.97;;;3.55;74.39
11808;BME280;5961;42.640;23.380;2023-04-06T09:24:40;93594.69;;;3.27;74.40
11808;BME280;5961;42.640;23.380;2023-04-06T09:27:07;93613.50;;;3.56;72.88
11808;BME280;5961;42.640;23.380;2023-04-06T09:29:33;93645.72;;;3.70;73.20
11808;BME280;5961;42.640;23.380;2023-04-06T09:32:03;93641.19;;;3.84;73.54
11808;BME280;5961;42.640;23.380;2023-04-06T09:34:29;93633.78;;;3.86;72.86
11808;BME280;5961;42.640;23.380;2023-04-06T09:36:56;93620.75;;;3.81;72.47
11808;BME280;5961;42.640;23.380;2023-04-06T09:39:25;93605.47;;;3.61;73.12
11808;BME280;5961;42.640;23.380;2023-04-06T09:41:53;93628.22;;;3.88;71.76
11808;BME280;5961;42.640;23.380;2023-04-06T09:44:21;93619.97;;;3.81;71.42
11808;BME280;5961;42.640;23.380;2023-04-06T09:46:49;93640.59;;;3.87;71.76
11808;BME280;5961;42.640;23.380;2023-04-06T09:49:17;93629.72;;;3.80;71.46
11808;BME280;5961;42.640;23.380;2023-04-06T09:51:46;93639.06;;;3.86;71.07
11808;BME280;5961;42.640;23.380;2023-04-06T09:54:18;93642.38;;;3.78;71.80
11808;BME280;5961;42.640;23.380;2023-04-06T09:56:51;93635.31;;;3.87;70.98
11808;BME280;5961;42.640;23.380;2023-04-06T09:59:28;93615.63;;;3.99;70.22
11808;BME280;5961;42.640;23.380;2023-04-06T10:01:59;93610.19;;;3.95;71.08
11808;BME280;5961;42.640;23.380;2023-04-06T10:04:36;93639.50;;;4.11;69.42
11808;BME280;5961;42.640;23.380;2023-04-06T10:07:06;93640.44;;;4.15;69.20
11808;BME280;5961;42.640;23.380;2023-04-06T10:09:36;93627.19;;;4.20;69.65
11808;BME280;5961;42.640;23.380;2023-04-06T10:12:05;93650.19;;;4.14;68.49
11808;BME280;5961;42.640;23.380;2023-04-06T10:14:33;93675.28;;;4.20;69.69
11808;BME280;5961;42.640;23.380;2023-04-06T10:17:02;93636.44;;;4.17;68.26
11808;BME280;5961;42.640;23.380;2023-04-06T10:19:36;93661.97;;;4.17;67.18
11808;BME280;5961;42.640;23.380;2023-04-06T10:22:08;93628.25;;;4.19;67.79
11808;BME280;5961;42.640;23.380;2023-04-06T10:24:36;93667.88;;;4.22;68.43
11808;BME280;5961;42.640;23.380;2023-04-06T10:27:06;93687.34;;;4.21;68.02
11808;BME280;5961;42.640;23.380;2023-04-06T10:29:47;93621.91;;;4.20;68.67
11808;BME280;5961;42.640;23.380;2023-04-06T10:32:15;93669.34;;;4.37;67.77
11808;BME280;5961;42.640;23.380;2023-04-06T10:34:41;93631.31;;;4.43;67.35
11808;BME280;5961;42.640;23.380;2023-04-06T10:37:15;93631.06;;;4.53;67.05
11808;BME280;5961;42.640;23.380;2023-04-06T10:39:47;93629.94;;;4.54;66.14
11808;BME280;5961;42.640;23.380;2023-04-06T10:42:15;93630.59;;;4.60;66.90
11808;BME280;5961;42.640;23.380;2023-04-06T10:44:43;93651.22;;;4.66;65.39
11808;BME280;5961;42.640;23.380;2023-04-06T10:47:16;93636.81;;;4.64;65.09
11808;BME280;5961;42.640;23.380;2023-04-06T10:49:43;93634.81;;;4.69;64.74
11808;BME280;5961;42.640;23.380;2023-04-06T10:52:09;93632.53;;;4.85;65.99
11808;BME280;5961;42.640;23.380;2023-04-06T10:54:41;93634.75;;;5.00;64.63
11808;BME280;5961;42.640;23.380;2023-04-06T10:57:08;93643.28;;;5.06;65.16
11808;BME280;5961;42.640;23.380;2023-04-06T10:59:37;93641.59;;;5.18;63.60
11808;BME280;5961;42.640;23.380;2023-04-06T11:02:08;93612.47;;;5.23;63.67
11808;BME280;5961;42.640;23.380;2023-04-06T11:04:34;93617.28;;;5.30;64.21
11808;BME280;5961;42.640;23.380;2023-04-06T11:07:01;93638.34;;;5.30;63.53
11808;BME280;5961;42.640;23.380;2023-04-06T11:09:29;93625.50;;;5.37;63.89
11808;BME280;5961;42.640;23.380;2023-04-06T11:11:57;93616.50;;;5.38;63.32
11808;BME280;5961;42.640;23.380;2023-04-06T11:14:23;93621.03;;;5.46;62.79
11808;BME280;5961;42.640;23.380;2023-04-06T11:16:53;93629.22;;;5.53;63.97
11808;BME280;5961;42.640;23.380;2023-04-06T11:19:20;93641.47;;;5.49;63.64
11808;BME280;5961;42.640;23.380;2023-04-06T11:21:47;93626.13;;;5.51;64.68
11808;BME280;5961;42.640;23.380;2023-04-06T11:24:16;93619.00;;;5.51;63.57
11808;BME280;5961;42.640;23.380;2023-04-06T11:26:44;93621.19;;;5.58;63.08
11808;BME280;5961;42.640;23.380;2023-04-06T11:29:12;93595.28;;;5.43;62.32
11808;BME280;5961;42.640;23.380;2023-04-06T11:31:42;93606.91;;;5.50;62.45
11808;BME280;5961;42.640;23.380;2023-04-06T11:34:15;93602.09;;;5.44;62.93
11808;BME280;5961;42.640;23.380;2023-04-06T11:36:43;93610.31;;;5.51;63.51
11808;BME280;5961;42.640;23.380;2023-04-06T11:39:11;93609.84;;;5.49;64.42
11808;BME280;5961;42.640;23.380;2023-04-06T11:41:38;93614.50;;;5.61;63.93
11808;BME280;5961;42.640;23.380;2023-04-06T11:44:05;93602.09;;;5.61;63.57
11808;BME280;5961;42.640;23.380;2023-04-06T11:46:32;93605.81;;;5.51;64.17
11808;BME280;5961;42.640;23.380;2023-04-06T11:49:00;93614.06;;;5.59;63.80
11808;BME280;5961;42.640;23.380;2023-04-06T11:51:28;93598.69;;;5.52;63.40
11808;BME280;5961;42.640;23.380;2023-04-06T11:53:55;93598.53;;;5.57;63.53
11808;BME280;5961;42.640;23.380;2023-04-06T11:56:26;93599.16;;;5.54;63.26
11808;BME280;5961;42.640;23.380;2023-04-06T11:58:55;93601.63;;;5.50;63.11
11808;BME280;5961;42.640;23.380;2023-04-06T12:01:22;93605.97;;;5.55;63.30
11808;BME280;5961;42.640;23.380;2023-04-06T12:03:50;93601.47;;;5.47;63.53
11808;BME280;5961;42.640;23.380;2023-04-06T12:06:17;93566.16;;;5.22;63.24
11808;BME280;5961;42.640;23.380;2023-04-06T12:08:46;93595.41;;;5.38;63.60
11808;BME280;5961;42.640;23.380;2023-04-06T12:11:13;93601.97;;;5.40;63.75
11808;BME280;5961;42.640;23.380;2023-04-06T12:13:39;93610.47;;;5.37;64.14
11808;BME280;5961;42.640;23.380;2023-04-06T12:16:06;93574.50;;;5.16;64.25
11808;BME280;5961;42.640;23.380;2023-04-06T12:18:33;93599.78;;;5.34;65.18
11808;BME280;5961;42.640;23.380;2023-04-06T12:21:00;93604.44;;;5.28;64.47
11808;BME280;5961;42.640;23.380;2023-04-06T12:23:26;93601.00;;;5.28;63.94
11808;BME280;5961;42.640;23.380;2023-04-06T12:25:55;93601.94;;;5.23;64.81
11808;BME280;5961;42.640;23.380;2023-04-06T12:28:21;93586.13;;;5.23;65.20
11808;BME280;5961;42.640;23.380;2023-04-06T12:30:52;93600.41;;;5.22;64.76
11808;BME280;5961;42.640;23.380;2023-04-06T12:33:19;93460.91;;;4.31;65.57
11808;BME280;5961;42.640;23.380;2023-04-06T12:35:46;93596.97;;;5.22;65.54
11808;BME280;5961;42.640;23.380;2023-04-06T12:38:13;93582.88;;;5.18;64.64
11808;BME280;5961;42.640;23.380;2023-04-06T12:40:39;93589.38;;;5.12;65.17
11808;BME280;5961;42.640;23.380;2023-04-06T12:43:08;93580.41;;;5.13;65.45
11808;BME280;5961;42.640;23.380;2023-04-06T12:45:35;93585.66;;;5.13;64.45
11808;BME280;5961;42.640;23.380;2023-04-06T12:48:02;93579.63;;;5.12;64.22
11808;BME280;5961;42.640;23.380;2023-04-06T12:50:28;93573.09;;;5.01;64.05
11808;BME280;5961;42.640;23.380;2023-04-06T12:52:55;93577.44;;;4.97;65.02
11808;BME280;5961;42.640;23.380;2023-04-06T12:55:22;93578.84;;;5.12;64.45
11808;BME280;5961;42.640;23.380;2023-04-06T12:57:49;93567.38;;;5.08;64.35
11808;BME280;5961;42.640;23.380;2023-04-06T13:00:18;93578.38;;;5.01;64.72
11808;BME280;5961;42.640;23.380;2023-04-06T13:02:45;93571.72;;;5.04;64.66
11808;BME280;5961;42.640;23.380;2023-04-06T13:05:13;93574.50;;;4.98;65.29
11808;BME280;5961;42.640;23.380;2023-04-06T13:07:44;93573.28;;;5.05;65.01
11808;BME280;5961;42.640;23.380;2023-04-06T13:10:10;93571.53;;;5.00;64.73
11808;BME280;5961;42.640;23.380;2023-04-06T13:12:37;93571.09;;;5.07;65.05